Time;durP1;ratioP1;P1;durP2;ratioP2;P2;SDS_P1;SDS_P2;PMS_P1;PMS_P2;Temp;Humidity;BMP_temperature;BMP_pressure;BME280_temperature;BME280_humidity;BME280_pressure;Samples;Min_cycle;Max_cycle;Signal;HPM_P1;HPM_P2
2023/08/30 00:02:14;;;;;;;2.30;2.17;;;11.30;99.90;;;;;;5025080;23;20050;-77
2023/08/30 00:04:41;;;;;;;2.55;2.35;;;11.30;99.90;;;;;;5001714;28;20062;-77
2023/08/30 00:07:07;;;;;;;3.13;2.83;;;11.20;99.90;;;;;;5001729;28;20023;-77
2023/08/30 00:09:32;;;;;;;3.42;2.28;;;11.20;99.90;;;;;;5010519;23;20026;-77
2023/08/30 00:11:58;;;;;;;2.75;2.17;;;10.70;99.90;;;;;;5001881;28;20014;-77
2023/08/30 00:14:24;;;;;;;2.88;2.40;;;11.30;99.90;;;;;;5001697;28;20026;-78
2023/08/30 00:16:49;;;;;;;3.35;2.72;;;11.40;99.90;;;;;;5001909;28;20026;-78
2023/08/30 00:20:15;;;;;;;6.78;2.75;;;11.50;99.90;;;;;;5018694;28;20046;-76
2023/08/30 00:22:41;;;;;;;3.03;2.80;;;11.50;99.90;;;;;;5018884;28;20034;-77
2023/08/30 00:25:07;;;;;;;7.30;3.10;;;11.50;99.90;;;;;;5022494;28;20014;-78
2023/08/30 00:27:53;;;;;;;3.95;3.25;;;11.50;99.90;;;;;;5022087;28;20015;-78
2023/08/30 00:30:19;;;;;;;3.65;2.88;;;11.50;99.90;;;;;;5005612;28;20026;-78
2023/08/30 00:32:44;;;;;;;2.67;2.42;;;11.50;99.90;;;;;;5022262;28;20017;-78
2023/08/30 00:35:10;;;;;;;7.07;2.90;;;11.50;99.90;;;;;;5022203;28;20018;-78
2023/08/30 00:37:35;;;;;;;2.53;2.28;;;11.50;99.90;;;;;;5005112;28;20027;-78
2023/08/30 00:40:01;;;;;;;4.03;2.58;;;11.50;99.90;;;;;;5004893;28;20022;-78
2023/08/30 00:42:27;;;;;;;3.80;2.60;;;11.50;99.90;;;;;;5004954;28;20028;-78
2023/08/30 00:45:19;;;;;;;3.20;2.90;;;11.40;99.90;;;;;;4999095;28;20054;-78
2023/08/30 00:47:45;;;;;;;3.10;2.80;;;11.50;99.90;;;;;;5004872;28;20003;-78
2023/08/30 00:50:12;;;;;;;2.97;2.60;;;11.50;99.90;;;;;;5021989;28;20053;-79
2023/08/30 00:53:16;;;;;;;9.27;2.95;;;11.40;99.90;;;;;;5005518;28;20069;-78
2023/08/30 00:55:43;;;;;;;2.65;2.45;;;11.50;99.90;;;;;;5022042;28;20015;-77
2023/08/30 00:58:10;;;;;;;2.67;2.33;;;11.60;99.90;;;;;;5022045;28;20010;-80
2023/08/30 01:00:36;;;;;;;3.17;2.50;;;11.60;99.90;;;;;;5022210;28;20014;-78
2023/08/30 01:03:04;;;;;;;2.42;2.22;;;11.60;99.90;;;;;;5004954;28;20014;-78
2023/08/30 01:05:30;;;;;;;2.70;2.50;;;11.60;99.90;;;;;;5005141;28;20094;-79
2023/08/30 01:07:55;;;;;;;3.70;2.50;;;11.50;99.90;;;;;;5005146;28;20015;-79
2023/08/30 01:10:31;;;;;;;4.70;2.38;;;11.50;99.90;;;;;;5004992;28;20062;-78
2023/08/30 01:13:05;;;;;;;9.50;2.78;;;11.60;99.90;;;;;;5021301;28;20010;-78
2023/08/30 01:15:32;;;;;;;4.47;3.00;;;11.60;99.90;;;;;;5004596;28;20010;-78
2023/08/30 01:17:59;;;;;;;2.65;2.45;;;11.60;99.90;;;;;;5021775;28;20014;-78
2023/08/30 01:20:47;;;;;;;3.03;2.30;;;11.50;99.90;;;;;;5005220;28;20021;-77
2023/08/30 01:23:13;;;;;;;2.85;2.65;;;11.70;99.90;;;;;;5021615;28;20074;-78
2023/08/30 01:26:48;;;;;;;4.15;2.50;;;11.70;99.90;;;;;;5004988;28;20083;-76
2023/08/30 01:29:18;;;;;;;3.00;2.58;;;11.70;99.90;;;;;;5004533;28;20026;-78
2023/08/30 01:32:20;;;;;;;3.35;2.55;;;11.60;99.90;;;;;;5007807;28;20086;-77
2023/08/30 01:35:07;;;;;;;2.90;2.70;;;11.60;99.90;;;;;;5020188;28;20045;-77
2023/08/30 01:37:53;;;;;;;6.00;2.90;;;11.60;99.90;;;;;;5000860;28;20015;-77
2023/08/30 01:41:05;;;;;;;2.88;2.22;;;11.50;99.90;;;;;;5000926;28;20054;-78
2023/08/30 01:43:31;;;;;;;3.72;3.42;;;11.50;99.90;;;;;;5000609;28;20053;-78
2023/08/30 01:46:46;;;;;;;3.08;2.60;;;11.60;99.90;;;;;;5000399;28;20035;-77
2023/08/30 01:49:13;;;;;;;2.83;2.50;;;11.70;99.90;;;;;;4978496;28;20031;-79
2023/08/30 01:51:39;;;;;;;2.63;2.42;;;11.70;99.90;;;;;;4984418;28;20013;-78
2023/08/30 01:54:06;;;;;;;2.35;2.20;;;11.70;99.90;;;;;;5000440;28;20061;-78
2023/08/30 01:57:00;;;;;;;4.35;2.55;;;11.70;99.90;;;;;;5000745;28;20027;-77
2023/08/30 01:59:26;;;;;;;2.40;2.00;;;11.70;99.90;;;;;;5000051;28;20015;-77
2023/08/30 02:04:45;;;;;;;2.80;2.60;;;11.70;99.90;;;;;;5000051;28;20057;-78
2023/08/30 02:07:29;;;;;;;2.38;2.22;;;11.60;99.90;;;;;;5000240;28;20094;-79
2023/08/30 02:10:26;;;;;;;2.50;2.30;;;11.60;99.90;;;;;;4998941;28;20042;-79
2023/08/30 02:13:39;;;;;;;7.72;2.97;;;11.60;99.90;;;;;;5003150;28;20037;-77
2023/08/30 02:16:05;;;;;;;5.03;2.83;;;11.60;99.90;;;;;;4999717;28;20015;-78
2023/08/30 02:18:31;;;;;;;8.13;3.10;;;11.60;99.90;;;;;;5020481;28;20074;-78
2023/08/30 02:20:58;;;;;;;2.90;2.65;;;11.50;99.90;;;;;;5020439;28;20025;-77
2023/08/30 02:23:27;;;;;;;6.20;2.33;;;11.50;99.90;;;;;;5003658;28;20053;-77
2023/08/30 02:26:35;;;;;;;3.28;1.85;;;11.50;99.90;;;;;;5003744;28;20026;-77
2023/08/30 02:29:00;;;;;;;4.32;2.28;;;11.50;99.90;;;;;;5003204;28;20030;-77
2023/08/30 02:32:26;;;;;;;3.88;2.13;;;11.50;99.90;;;;;;5020004;28;20049;-77
2023/08/30 02:38:24;;;;;;;2.70;2.13;;;11.50;99.90;;;;;;5018178;28;20010;-77
2023/08/30 02:41:30;;;;;;;2.47;2.15;;;11.60;99.90;;;;;;5019705;28;20037;-76
2023/08/30 02:43:58;;;;;;;3.08;2.75;;;11.60;99.90;;;;;;5002718;28;20082;-78
2023/08/30 02:46:44;;;;;;;3.17;2.60;;;11.60;99.90;;;;;;5086746;23;20046;-78
2023/08/30 02:49:11;;;;;;;2.50;2.30;;;11.50;99.90;;;;;;5344908;23;20046;-78
2023/08/30 02:51:36;;;;;;;2.95;2.75;;;11.50;99.90;;;;;;5003003;28;20026;-77
2023/08/30 02:54:02;;;;;;;6.05;2.97;;;11.50;99.90;;;;;;5002349;28;20022;-78
2023/08/30 02:56:28;;;;;;;2.50;2.30;;;11.60;99.90;;;;;;5019622;28;20053;-77
2023/08/30 02:58:54;;;;;;;2.45;2.25;;;11.60;99.90;;;;;;5002739;28;20021;-78
2023/08/30 03:01:19;;;;;;;3.75;3.28;;;11.60;99.90;;;;;;5019502;28;20049;-77
2023/08/30 03:03:48;;;;;;;2.75;2.53;;;11.60;99.90;;;;;;5019774;28;20053;-78
2023/08/30 03:06:16;;;;;;;3.20;2.60;;;11.70;99.90;;;;;;5002897;28;20055;-77
2023/08/30 03:08:42;;;;;;;3.10;2.50;;;11.60;99.90;;;;;;5002853;28;20025;-78
2023/08/30 03:11:12;;;;;;;3.28;2.40;;;11.60;99.90;;;;;;5019583;28;20014;-78
2023/08/30 03:13:38;;;;;;;4.00;2.53;;;11.60;99.90;;;;;;5019572;28;20014;-78
2023/08/30 03:16:15;;;;;;;7.90;2.63;;;11.50;99.90;;;;;;5019794;28;20066;-79
2023/08/30 03:18:41;;;;;;;2.35;2.17;;;11.60;99.90;;;;;;5002922;28;20014;-77
2023/08/30 03:21:49;;;;;;;2.92;2.67;;;11.60;99.90;;;;;;5001149;28;20022;-77
2023/08/30 03:25:06;;;;;;;2.70;2.50;;;11.50;99.90;;;;;;5018540;28;20034;-77
2023/08/30 03:28:01;;;;;;;3.72;2.40;;;11.50;99.90;;;;;;5018383;28;20014;-78
2023/08/30 03:30:47;;;;;;;7.55;2.90;;;11.40;99.90;;;;;;5006260;28;20046;-77
2023/08/30 03:34:10;;;;;;;2.97;2.78;;;11.40;99.90;;;;;;5019753;28;20042;-77
2023/08/30 03:36:37;;;;;;;3.22;2.92;;;11.40;99.90;;;;;;5019481;28;20010;-77
2023/08/30 03:39:03;;;;;;;2.85;2.58;;;11.20;99.90;;;;;;5002650;28;20038;-78
2023/08/30 03:41:52;;;;;;;2.42;2.22;;;11.10;99.90;;;;;;5001107;28;20023;-76
2023/08/30 03:44:17;;;;;;;2.55;2.00;;;11.00;99.90;;;;;;5019074;28;20022;-77
2023/08/30 03:47:13;;;;;;;2.70;2.45;;;11.00;99.90;;;;;;5002719;28;20056;-77
2023/08/30 03:49:41;;;;;;;4.38;3.08;;;11.10;99.90;;;;;;5017762;28;20038;-77
2023/08/30 03:52:27;;;;;;;3.47;3.17;;;11.10;99.90;;;;;;5017137;28;20022;-76
2023/08/30 03:55:01;;;;;;;3.50;2.88;;;11.10;99.90;;;;;;5019282;28;20025;-77
2023/08/30 03:58:15;;;;;;;3.00;2.75;;;11.10;99.90;;;;;;5006577;28;20018;-78
2023/08/30 04:01:00;;;;;;;2.97;2.60;;;11.10;99.90;;;;;;5007525;28;20019;-77
2023/08/30 04:03:47;;;;;;;2.97;2.78;;;11.00;99.90;;;;;;5001207;28;20019;-77
2023/08/30 04:06:19;;;;;;;3.15;2.50;;;11.00;99.90;;;;;;5023029;28;20048;-78
2023/08/30 04:09:08;;;;;;;3.40;2.45;;;11.00;99.90;;;;;;5022806;28;20313;-76
2023/08/30 04:12:04;;;;;;;3.28;2.97;;;11.10;99.90;;;;;;5022814;28;20006;-77
2023/08/30 04:15:12;;;;;;;3.45;3.15;;;11.10;99.90;;;;;;5018961;28;20090;-77
2023/08/30 04:18:10;;;;;;;3.72;2.85;;;11.10;99.90;;;;;;5021991;28;20035;-79
2023/08/30 04:20:39;;;;;;;3.08;2.67;;;11.10;99.90;;;;;;5005062;28;20058;-82
2023/08/30 04:23:04;;;;;;;3.10;2.35;;;11.20;99.90;;;;;;5022321;28;20013;-81
2023/08/30 04:25:59;;;;;;;3.30;3.00;;;11.20;99.90;;;;;;5005823;28;20026;-78
2023/08/30 04:28:30;;;;;;;2.97;2.72;;;11.10;99.90;;;;;;4985003;28;20045;-81
2023/08/30 04:30:56;;;;;;;3.53;3.22;;;11.10;99.90;;;;;;5005514;28;20006;-78
2023/08/30 04:33:23;;;;;;;4.30;2.97;;;11.10;99.90;;;;;;5005616;28;20010;-78
2023/08/30 04:35:55;;;;;;;3.22;2.47;;;11.20;99.90;;;;;;5022442;28;20018;-77
2023/08/30 04:41:19;;;;;;;2.45;2.25;;;11.20;99.90;;;;;;5005174;28;20026;-77
2023/08/30 04:44:04;;;;;;;3.17;2.90;;;11.20;99.90;;;;;;5005582;28;20026;-77
2023/08/30 04:46:30;;;;;;;4.78;3.03;;;11.20;99.90;;;;;;5021506;28;20046;-78
2023/08/30 04:49:29;;;;;;;2.45;2.28;;;11.30;99.90;;;;;;5004118;28;20038;-76
2023/08/30 04:52:16;;;;;;;4.57;2.60;;;11.30;99.90;;;;;;5021349;28;20015;-76
2023/08/30 04:55:11;;;;;;;7.93;2.70;;;11.30;99.90;;;;;;5022169;28;20038;-78
2023/08/30 04:57:50;;;;;;;3.70;2.40;;;11.30;99.90;;;;;;5021939;28;20027;-78
2023/08/30 05:00:44;;;;;;;5.00;3.28;;;11.30;99.90;;;;;;5005489;28;20029;-77
2023/08/30 05:03:36;;;;;;;3.63;2.35;;;11.30;99.90;;;;;;5005212;28;20061;-77
2023/08/30 05:06:02;;;;;;;2.65;2.47;;;11.40;99.90;;;;;;5005240;28;20038;-78
2023/08/30 05:08:28;;;;;;;2.47;2.28;;;11.40;99.90;;;;;;5004441;28;20022;-78
2023/08/30 05:11:17;;;;;;;3.25;2.95;;;11.50;99.90;;;;;;5021075;28;20042;-77
2023/08/30 05:13:43;;;;;;;3.70;3.00;;;11.40;99.90;;;;;;5002628;28;20046;-77
2023/08/30 05:16:09;;;;;;;5.10;3.30;;;11.40;99.90;;;;;;5021541;28;20060;-77
2023/08/30 05:18:38;;;;;;;4.05;2.58;;;11.50;99.90;;;;;;5004945;28;20034;-77
2023/08/30 05:21:23;;;;;;;2.65;2.45;;;11.60;99.90;;;;;;5019073;28;20035;-77
2023/08/30 05:23:52;;;;;;;2.88;2.67;;;11.80;99.90;;;;;;5021296;28;20025;-78
2023/08/30 05:26:37;;;;;;;3.05;2.75;;;11.90;99.90;;;;;;5019232;28;20014;-77
2023/08/30 05:29:08;;;;;;;5.72;2.83;;;11.90;99.90;;;;;;5021393;28;20045;-78
2023/08/30 05:31:34;;;;;;;3.67;2.90;;;12.00;99.90;;;;;;5004297;28;20015;-78
2023/08/30 05:34:12;;;;;;;4.20;3.03;;;12.00;99.90;;;;;;5021278;28;20011;-77
2023/08/30 05:36:37;;;;;;;3.03;2.63;;;12.10;99.90;;;;;;5019322;28;20089;-78
2023/08/30 05:39:27;;;;;;;3.28;2.97;;;12.20;99.90;;;;;;5020335;28;20042;-78
2023/08/30 05:41:52;;;;;;;;;;;12.20;99.90;;;;;;4996407;28;20006;-77
2023/08/30 05:44:31;;;;;;;2.78;2.58;;;12.40;99.90;;;;;;5020620;28;19934;-78
2023/08/30 05:47:18;;;;;;;5.47;2.90;;;12.40;99.90;;;;;;5020419;28;20030;-77
2023/08/30 05:49:44;;;;;;;2.65;2.45;;;12.40;99.90;;;;;;5020524;28;20045;-78
2023/08/30 05:52:10;;;;;;;3.00;2.63;;;12.50;99.90;;;;;;5020784;28;20022;-78
2023/08/30 05:55:00;;;;;;;3.08;2.80;;;12.60;99.90;;;;;;5003551;28;20026;-77
2023/08/30 05:57:27;;;;;;;3.50;2.67;;;12.70;99.90;;;;;;5003465;28;20085;-78
2023/08/30 05:59:53;;;;;;;2.70;2.50;;;12.80;99.90;;;;;;5003525;28;20114;-78
2023/08/30 06:05:29;;;;;;;3.80;3.45;;;12.70;99.90;;;;;;4998266;28;20037;-79
2023/08/30 06:08:17;;;;;;;3.00;2.72;;;12.80;99.90;;;;;;5019830;28;20034;-78
2023/08/30 06:10:43;;;;;;;2.40;2.10;;;12.90;99.90;;;;;;5020308;28;20013;-78
2023/08/30 06:13:08;;;;;;;3.63;2.45;;;13.00;99.90;;;;;;5003113;28;20014;-77
2023/08/30 06:15:35;;;;;;;3.55;2.55;;;13.10;99.90;;;;;;5019356;28;20474;-80
2023/08/30 06:18:01;;;;;;;2.55;2.35;;;13.10;99.90;;;;;;4999515;28;20018;-80
2023/08/30 06:20:26;;;;;;;3.13;2.28;;;13.30;99.90;;;;;;4979902;28;20312;-83
2023/08/30 06:22:52;;;;;;;2.70;2.50;;;13.30;99.90;;;;;;4989481;28;20026;-79
2023/08/30 06:25:19;;;;;;;3.22;3.03;;;13.50;99.90;;;;;;5008054;28;20030;-81
2023/08/30 06:27:58;;;;;;;2.60;2.40;;;13.60;99.90;;;;;;5006298;28;20182;-81
2023/08/30 06:30:36;;;;;;;2.80;2.60;;;13.80;99.90;;;;;;4991903;28;20061;-77
2023/08/30 06:33:06;;;;;;;2.80;2.60;;;14.00;99.90;;;;;;4995782;28;20019;-78
2023/08/30 06:35:32;;;;;;;2.75;2.55;;;14.10;99.90;;;;;;5007966;28;20042;-80
2023/08/30 06:37:57;;;;;;;2.58;2.38;;;14.30;99.90;;;;;;5001618;28;20302;-79
2023/08/30 06:40:23;;;;;;;3.30;2.40;;;14.40;99.90;;;;;;4984512;28;20046;-79
2023/08/30 06:43:00;;;;;;;3.60;2.72;;;14.50;99.90;;;;;;5118225;27;20418;-79
2023/08/30 06:45:26;;;;;;;2.05;1.95;;;14.50;99.90;;;;;;5114752;28;20024;-78
2023/08/30 06:47:52;;;;;;;2.33;2.13;;;14.60;99.90;;;;;;5108620;28;20374;-81
2023/08/30 06:50:18;;;;;;;2.13;1.90;;;14.70;99.90;;;;;;5109280;28;20106;-80
2023/08/30 06:52:44;;;;;;;2.33;2.13;;;14.80;99.90;;;;;;5114747;28;20016;-79
2023/08/30 06:55:10;;;;;;;2.38;2.17;;;14.80;99.90;;;;;;5139711;27;20031;-79
2023/08/30 06:57:35;;;;;;;2.30;2.10;;;14.90;99.90;;;;;;5128079;28;20031;-79
2023/08/30 07:00:07;;;;;;;3.22;2.13;;;14.90;99.90;;;;;;5110120;28;20024;-79
2023/08/30 07:02:37;;;;;;;4.90;2.83;;;14.80;99.90;;;;;;5139966;27;20031;-79
2023/08/30 07:05:04;;;;;;;2.15;2.03;;;14.70;99.90;;;;;;5116091;28;20057;-79
2023/08/30 07:07:31;;;;;;;2.35;1.80;;;14.80;99.90;;;;;;5114193;28;20023;-79
2023/08/30 07:09:56;;;;;;;2.78;1.55;;;15.10;99.90;;;;;;5116407;28;20027;-78
2023/08/30 07:12:22;;;;;;;4.65;1.92;;;15.30;99.90;;;;;;5110072;28;20180;-80
2023/08/30 07:14:48;;;;;;;3.22;2.28;;;16.50;99.90;;;;;;5115642;28;20031;-78
2023/08/30 07:17:13;;;;;;;1.48;1.38;;;15.90;99.90;;;;;;5112450;28;20565;-79
2023/08/30 07:19:39;;;;;;;3.90;2.38;;;16.00;99.90;;;;;;5114282;28;20055;-79
2023/08/30 07:22:05;;;;;;;2.70;2.50;;;16.00;99.90;;;;;;5131588;28;20035;-80
2023/08/30 07:24:30;;;;;;;2.33;2.00;;;15.80;99.90;;;;;;5123160;28;20028;-79
2023/08/30 07:26:56;;;;;;;1.88;1.77;;;15.90;99.90;;;;;;5115567;28;20043;-80
2023/08/30 07:29:22;;;;;;;2.60;2.40;;;16.00;99.90;;;;;;5121559;28;20020;-79
2023/08/30 07:31:51;;;;;;;2.63;2.40;;;16.20;99.90;;;;;;5118086;28;20034;-81
2023/08/30 07:34:16;;;;;;;3.13;2.28;;;16.20;99.90;;;;;;5116224;28;20223;-78
2023/08/30 07:36:43;;;;;;;2.40;2.22;;;16.20;99.90;;;;;;5117785;28;20027;-80
2023/08/30 07:39:09;;;;;;;2.70;2.40;;;16.20;99.90;;;;;;5112300;28;20032;-79
2023/08/30 07:41:35;;;;;;;2.40;2.20;;;16.20;99.90;;;;;;5109926;28;20047;-80
2023/08/30 07:44:01;;;;;;;1.98;1.88;;;16.20;99.90;;;;;;5105825;28;20024;-79
2023/08/30 07:46:26;;;;;;;2.38;2.17;;;16.30;99.90;;;;;;5108174;28;20118;-80
2023/08/30 07:48:52;;;;;;;4.53;2.50;;;16.60;99.90;;;;;;5104392;28;20463;-82
2023/08/30 07:51:18;;;;;;;2.92;2.35;;;16.70;99.90;;;;;;5106573;28;20075;-84
2023/08/30 07:53:43;;;;;;;1.83;1.73;;;16.80;99.90;;;;;;5095638;28;20016;-81
2023/08/30 07:56:09;;;;;;;2.83;2.20;;;17.20;99.90;;;;;;5089125;28;20582;-83
2023/08/30 07:58:34;;;;;;;2.75;2.55;;;17.40;99.90;;;;;;5093461;28;20032;-81
2023/08/30 08:01:01;;;;;;;7.07;2.50;;;17.40;99.90;;;;;;5092172;28;20111;-82
2023/08/30 08:03:26;;;;;;;3.55;2.22;;;17.40;99.90;;;;;;5091892;28;20103;-82
2023/08/30 08:05:52;;;;;;;2.60;2.40;;;17.40;99.90;;;;;;5093140;28;20054;-80
2023/08/30 08:08:18;;;;;;;3.28;2.00;;;17.30;99.90;;;;;;5092815;28;20031;-80
2023/08/30 08:10:43;;;;;;;4.45;1.90;;;17.10;99.90;;;;;;5093658;28;20103;-79
2023/08/30 08:13:10;;;;;;;2.92;2.40;;;16.90;99.90;;;;;;5112560;28;20708;-80
2023/08/30 08:15:35;;;;;;;2.50;2.30;;;16.90;99.90;;;;;;5110455;28;20110;-79
2023/08/30 08:18:02;;;;;;;2.45;2.20;;;17.00;99.90;;;;;;5110382;28;20127;-81
2023/08/30 08:20:29;;;;;;;2.50;2.30;;;17.20;99.90;;;;;;5113453;28;20397;-81
2023/08/30 08:22:54;;;;;;;2.95;2.75;;;17.30;99.90;;;;;;5110725;28;20430;-79
2023/08/30 08:25:22;;;;;;;2.22;2.08;;;17.60;99.90;;;;;;5109666;28;20039;-83
2023/08/30 08:27:47;;;;;;;1.85;1.75;;;18.10;99.90;;;;;;5091508;28;20497;-81
2023/08/30 08:30:13;;;;;;;2.05;1.85;;;18.70;99.90;;;;;;5090965;28;20043;-79
2023/08/30 08:32:39;;;;;;;2.85;2.08;;;19.60;99.90;;;;;;5089998;28;20074;-79
2023/08/30 08:35:05;;;;;;;2.17;2.00;;;20.30;99.90;;;;;;5090500;28;20123;-85
2023/08/30 08:37:32;;;;;;;1.83;1.73;;;20.10;99.90;;;;;;5092056;28;20032;-84
2023/08/30 08:39:57;;;;;;;1.75;1.65;;;20.00;99.90;;;;;;5095679;28;20037;-80
2023/08/30 08:42:23;;;;;;;2.33;2.13;;;20.10;99.90;;;;;;5117245;27;20447;-79
2023/08/30 08:44:54;;;;;;;1.90;1.80;;;20.30;99.90;;;;;;5089987;28;20067;-83
2023/08/30 08:47:21;;;;;;;1.65;1.55;;;20.80;99.90;;;;;;5091535;28;20228;-82
2023/08/30 08:49:51;;;;;;;1.48;1.38;;;20.60;99.90;;;;;;5090621;28;20198;-79
2023/08/30 08:52:16;;;;;;;1.80;1.70;;;20.10;99.90;;;;;;5091282;28;20028;-83
2023/08/30 08:54:43;;;;;;;1.67;1.58;;;19.80;99.90;;;;;;5090453;28;20035;-85
2023/08/30 08:57:09;;;;;;;1.65;1.55;;;19.90;99.90;;;;;;5093191;28;20038;-82
2023/08/30 08:59:35;;;;;;;2.47;1.90;;;20.40;99.90;;;;;;5089630;28;20036;-81
2023/08/30 09:02:02;;;;;;;1.70;1.60;;;20.70;99.90;;;;;;5090343;28;20040;-80
2023/08/30 09:04:31;;;;;;;1.73;1.40;;;21.10;99.90;;;;;;5089211;28;20408;-81
2023/08/30 09:06:58;;;;;;;1.58;1.48;;;21.30;99.90;;;;;;5090970;28;20480;-79
2023/08/30 09:09:24;;;;;;;1.52;1.02;;;21.20;99.90;;;;;;5089527;28;20031;-79
2023/08/30 09:11:50;;;;;;;1.20;1.20;;;21.30;99.90;;;;;;5090260;28;20079;-81
2023/08/30 09:14:15;;;;;;;1.85;1.40;;;21.20;99.90;;;;;;5090521;28;20048;-77
2023/08/30 09:16:41;;;;;;;2.72;1.55;;;20.80;99.90;;;;;;5090521;28;20358;-79
2023/08/30 09:19:07;;;;;;;4.18;1.30;;;20.60;99.90;;;;;;5090650;28;20025;-88
2023/08/30 09:21:33;;;;;;;2.53;1.50;;;20.30;99.90;;;;;;5100715;28;20043;-81
2023/08/30 09:24:02;;;;;;;1.33;1.27;;;20.00;99.90;;;;;;5109970;28;20076;-80
2023/08/30 09:26:31;;;;;;;2.05;1.35;;;20.30;99.90;;;;;;5110808;28;20118;-79
2023/08/30 09:29:08;;;;;;;1.27;1.15;;;20.40;99.90;;;;;;5112880;28;20023;-81
2023/08/30 09:31:39;;;;;;;3.53;1.65;;;20.20;99.90;;;;;;5120882;22;20049;-84
2023/08/30 09:34:05;;;;;;;2.85;1.60;;;19.90;99.90;;;;;;5071926;28;20039;-84
2023/08/30 09:36:37;;;;;;;2.60;1.40;;;19.80;99.90;;;;;;5359514;22;20053;-81
2023/08/30 09:39:14;;;;;;;1.88;1.77;;;19.30;99.90;;;;;;5046391;28;20639;-81
2023/08/30 09:41:48;;;;;;;1.85;1.75;;;19.40;99.90;;;;;;5031777;28;20038;-79
2023/08/30 09:44:19;;;;;;;2.45;1.88;;;19.60;99.90;;;;;;5010133;28;20033;-81
2023/08/30 09:46:46;;;;;;;1.55;1.50;;;19.80;99.90;;;;;;5038265;28;20017;-84
2023/08/30 09:49:12;;;;;;;2.58;1.77;;;19.70;99.90;;;;;;5038480;28;20084;-83
2023/08/30 09:51:43;;;;;;;3.33;1.80;;;19.70;99.90;;;;;;5039283;28;20125;-81
2023/08/30 09:54:31;;;;;;;1.58;1.48;;;19.80;99.90;;;;;;5046409;28;20005;-81
2023/08/30 09:56:59;;;;;;;1.95;1.75;;;19.80;99.90;;;;;;5043564;28;20033;-80
2023/08/30 09:59:25;;;;;;;2.78;1.58;;;19.60;99.90;;;;;;5046631;28;20022;-79
2023/08/30 10:01:52;;;;;;;1.63;1.52;;;19.80;99.90;;;;;;5045049;28;20060;-81
2023/08/30 10:04:20;;;;;;;3.00;1.63;;;19.90;99.90;;;;;;5041215;28;20013;-78
2023/08/30 10:06:48;;;;;;;1.77;1.67;;;19.90;99.90;;;;;;5047354;28;20081;-81
2023/08/30 10:09:18;;;;;;;3.30;1.70;;;19.60;99.90;;;;;;5038064;28;20025;-80
2023/08/30 10:11:46;;;;;;;3.22;1.92;;;20.20;99.90;;;;;;5052872;28;20040;-80
2023/08/30 10:14:16;;;;;;;3.53;2.22;;;20.00;99.90;;;;;;5050033;28;20009;-81
2023/08/30 10:16:48;;;;;;;2.67;1.70;;;19.90;99.90;;;;;;5051634;28;20028;-81
2023/08/30 10:19:15;;;;;;;2.25;1.77;;;20.30;99.90;;;;;;5049982;28;20033;-79
2023/08/30 10:21:43;;;;;;;1.70;1.60;;;20.40;99.90;;;;;;5034368;28;20481;-79
2023/08/30 10:24:11;;;;;;;2.13;1.52;;;20.70;99.90;;;;;;5028495;28;20112;-82
2023/08/30 10:26:38;;;;;;;2.08;1.88;;;21.10;99.90;;;;;;5033562;28;20508;-82
2023/08/30 10:29:06;;;;;;;1.70;1.60;;;21.10;99.90;;;;;;5037653;28;20048;-81
2023/08/30 10:31:31;;;;;;;1.60;1.50;;;21.10;99.90;;;;;;5031975;28;20044;-87
2023/08/30 10:33:57;;;;;;;2.75;1.75;;;21.30;99.90;;;;;;5029089;28;20256;-85
2023/08/30 10:36:24;;;;;;;2.35;1.77;;;21.20;99.90;;;;;;5028117;28;20073;-81
2023/08/30 10:38:53;;;;;;;1.50;1.40;;;20.90;99.90;;;;;;5037135;28;20029;-80
2023/08/30 10:41:25;;;;;;;1.95;1.85;;;20.40;99.90;;;;;;5055105;28;20021;-78
2023/08/30 10:43:52;;;;;;;4.07;1.70;;;19.90;99.90;;;;;;5057804;28;20026;-83
2023/08/30 10:46:32;;;;;;;2.15;1.95;;;20.10;99.90;;;;;;5043693;28;20116;-84
2023/08/30 10:49:18;;;;;;;2.72;2.03;;;20.90;99.90;;;;;;5029779;28;20040;-84
2023/08/30 10:51:44;;;;;;;1.60;1.48;;;21.30;99.90;;;;;;5030143;28;20126;-83
2023/08/30 10:54:17;;;;;;;1.85;1.40;;;21.20;99.70;;;;;;5044701;28;20109;-83
2023/08/30 10:56:51;;;;;;;1.67;1.40;;;20.50;99.90;;;;;;5042658;28;20041;-80
2023/08/30 10:59:22;;;;;;;1.67;1.50;;;20.10;99.90;;;;;;5034819;28;20533;-80
2023/08/30 11:01:49;;;;;;;1.63;1.52;;;19.90;99.90;;;;;;5044171;28;20099;-80
2023/08/30 11:04:19;;;;;;;1.70;1.60;;;19.80;99.90;;;;;;5029814;28;20029;-84
2023/08/30 11:06:49;;;;;;;4.05;2.10;;;20.00;99.90;;;;;;5029602;28;20540;-84
2023/08/30 11:09:20;;;;;;;2.25;1.70;;;20.10;99.90;;;;;;5032069;28;20132;-85
2023/08/30 11:11:47;;;;;;;1.90;1.80;;;20.20;99.90;;;;;;5028408;28;20026;-84
2023/08/30 11:14:13;;;;;;;2.35;1.60;;;20.40;99.90;;;;;;5028524;28;20057;-86
2023/08/30 11:16:39;;;;;;;1.40;1.30;;;20.70;99.90;;;;;;5033064;28;20061;-82
2023/08/30 11:19:07;;;;;;;3.13;1.30;;;20.70;99.90;;;;;;5049433;28;20021;-80
2023/08/30 11:21:34;;;;;;;4.07;1.50;;;20.30;99.90;;;;;;5053454;28;20037;-80
2023/08/30 11:24:00;;;;;;;6.90;2.47;;;20.60;99.90;;;;;;5031879;28;20028;-84
2023/08/30 11:26:26;;;;;;;1.60;1.50;;;21.30;98.40;;;;;;5027513;28;20025;-85
2023/08/30 11:28:52;;;;;;;1.33;1.23;;;21.10;97.70;;;;;;5047734;28;20005;-78
2023/08/30 11:31:20;;;;;;;1.63;1.52;;;20.40;97.40;;;;;;5059267;28;20101;-79
2023/08/30 11:33:55;;;;;;;4.38;2.13;;;19.70;98.80;;;;;;5059888;28;20040;-78
2023/08/30 11:36:22;;;;;;;2.03;1.85;;;19.60;99.40;;;;;;5057680;28;20049;-79
2023/08/30 11:38:52;;;;;;;2.30;1.77;;;19.70;99.10;;;;;;5058540;28;20030;-81
2023/08/30 11:41:20;;;;;;;2.42;1.40;;;20.50;97.70;;;;;;5036762;28;20034;-84
2023/08/30 11:43:48;;;;;;;2.70;1.33;;;22.10;97.70;;;;;;5037513;28;20034;-82
2023/08/30 11:46:13;;;;;;;2.10;1.23;;;22.20;94.60;;;;;;5058381;28;20018;-80
2023/08/30 11:48:42;;;;;;;3.55;1.73;;;21.60;95.40;;;;;;5061194;28;20052;-79
2023/08/30 11:51:09;;;;;;;1.13;1.05;;;21.90;96.60;;;;;;5039695;28;20105;-82
2023/08/30 11:53:35;;;;;;;2.75;1.58;;;22.60;94.50;;;;;;5041964;28;20025;-82
2023/08/30 11:56:01;;;;;;;2.72;1.08;;;22.60;93.60;;;;;;5038474;28;20017;-79
2023/08/30 11:58:27;;;;;;;2.00;1.70;;;22.30;92.10;;;;;;5038900;28;20482;-81
2023/08/30 12:00:54;;;;;;;1.48;1.35;;;22.80;93.80;;;;;;5035715;28;20097;-82
2023/08/30 12:03:22;;;;;;;1.70;1.55;;;23.00;91.50;;;;;;5041047;28;20194;-78
2023/08/30 12:05:50;;;;;;;1.10;1.10;;;22.10;91.10;;;;;;5043784;28;20438;-81
2023/08/30 12:08:19;;;;;;;3.45;1.48;;;22.00;92.40;;;;;;5023195;28;20041;-85
2023/08/30 12:10:46;;;;;;;3.28;0.82;;;22.70;91.40;;;;;;5011501;28;20050;-80
2023/08/30 12:13:24;;;;;;;1.40;1.30;;;23.50;92.20;;;;;;5010998;28;20030;-85
2023/08/30 12:16:12;;;;;;;4.03;1.20;;;23.80;87.80;;;;;;5014191;28;20109;-84
2023/08/30 12:18:41;;;;;;;1.80;1.00;;;23.60;85.90;;;;;;5026818;28;20472;-81
2023/08/30 12:21:07;;;;;;;1.83;1.15;;;22.80;83.90;;;;;;5025278;28;20082;-81
2023/08/30 12:23:34;;;;;;;1.98;1.15;;;23.10;85.10;;;;;;5011157;28;20030;-80
2023/08/30 12:26:02;;;;;;;2.33;0.90;;;24.20;84.50;;;;;;5025982;28;20037;-81
2023/08/30 12:28:28;;;;;;;1.77;1.25;;;25.60;83.20;;;;;;5029301;28;20021;-81
2023/08/30 12:30:55;;;;;;;0.80;0.80;;;25.90;78.80;;;;;;5029394;28;20018;-77
2023/08/30 12:33:21;;;;;;;1.08;1.08;;;26.30;77.70;;;;;;5031395;28;20036;-85
2023/08/30 12:35:47;;;;;;;2.88;0.93;;;24.60;76.20;;;;;;5023456;28;20026;-81
2023/08/30 12:38:17;;;;;;;1.73;1.00;;;24.30;79.90;;;;;;5010900;28;20033;-82
2023/08/30 12:40:44;;;;;;;1.45;1.35;;;24.90;79.00;;;;;;5010844;28;20441;-86
2023/08/30 12:43:10;;;;;;;4.38;1.00;;;25.10;78.80;;;;;;5026834;28;20026;-85
2023/08/30 12:45:36;;;;;;;1.30;1.20;;;25.10;79.80;;;;;;5026776;28;20390;-81
2023/08/30 12:48:02;;;;;;;1.27;1.17;;;24.30;82.70;;;;;;5016527;28;20212;-84
2023/08/30 12:50:28;;;;;;;1.45;1.35;;;23.90;85.50;;;;;;5010735;28;20022;-82
2023/08/30 12:52:54;;;;;;;1.48;1.30;;;24.20;84.90;;;;;;5028079;28;20022;-79
2023/08/30 12:55:19;;;;;;;0.90;0.90;;;24.50;81.60;;;;;;5029018;28;20087;-85
2023/08/30 12:57:46;;;;;;;1.20;1.10;;;24.60;80.00;;;;;;5030709;28;20030;-85
2023/08/30 13:00:13;;;;;;;2.13;1.40;;;24.60;79.50;;;;;;5029271;28;20032;-82
2023/08/30 13:02:39;;;;;;;2.08;1.40;;;24.60;77.30;;;;;;5020999;28;20033;-85
2023/08/30 13:05:05;;;;;;;1.60;0.85;;;24.50;75.30;;;;;;5018634;28;20021;-82
2023/08/30 13:07:30;;;;;;;0.88;0.80;;;24.60;74.00;;;;;;5021111;28;20045;-84
2023/08/30 13:09:56;;;;;;;1.33;1.10;;;24.90;75.70;;;;;;5018121;28;20410;-80
2023/08/30 13:12:22;;;;;;;0.80;0.80;;;25.90;75.70;;;;;;5025268;28;20470;-79
2023/08/30 13:14:47;;;;;;;0.82;0.82;;;26.40;75.70;;;;;;5029219;28;20409;-80
2023/08/30 13:17:13;;;;;;;2.70;0.85;;;26.10;71.40;;;;;;5029527;28;20427;-86
2023/08/30 13:19:38;;;;;;;0.82;0.80;;;26.10;72.30;;;;;;5029029;28;20032;-85
2023/08/30 13:22:04;;;;;;;1.17;1.05;;;25.10;72.10;;;;;;5029882;28;20030;-83
2023/08/30 13:24:32;;;;;;;2.85;1.13;;;24.70;75.40;;;;;;5030078;28;20033;-85
2023/08/30 13:26:58;;;;;;;0.95;0.95;;;25.20;73.30;;;;;;5010647;28;20104;-81